CYRV

Details ICAO CYRV (YRV)
Name REVELSTOKE
Region Canada
Timezone America/Vancouver (UTC-7.0)
Plans Departing 17
Arriving 13
Stats Elevation 1,459 ft / 445 m (AMSL)
Location 50.966665° -118.183335°
Runways 1
Magnetic Variation 15.468° E
Sunrise 2018-05-26 11:50:37 UTC / 2018-05-26 04:50:37 Local
Sunset 2018-05-27 03:51:53 UTC / 2018-05-26 20:51:53 Local
Advertisement - Login to hide

Runways

ID Width Length Bearing (true) Bearing (mag) Surface Threshold Offset Overrun Length
12 75 ft / 23 m 4,793 ft / 1,461 m 137.62° 122.15° Asphalt 0 ft / 0 m 0 ft / 0 m
30 75 ft / 23 m 4,793 ft / 1,461 m 317.63° 302.16° Asphalt 300 ft / 91 m 0 ft / 0 m

Map

Weather


0- 5 10 15 20 25 30 35+ Temperature / ° C

Clouds and Precipitation
Forecast for 2018-05-26 12:00 UTC. Updated an hour ago

Ground ~20,000 ft ~40,000 ft Winds

METAR

CYRV 261200Z AUTO 01010G18KT 290V030 9SM CLR 17/04 A2984 RMK SLP100 DENSITY ALT 2000FT

TAF

Not found

Frequencies

Unicom 122.80 MHz CTAF/UNICOM
Warning: Do not use this data for real-world aviation or navigation. No guarantee of current accuracy is given.